Time;durP1;ratioP1;P1;durP2;ratioP2;P2;SDS_P1;SDS_P2;PMS_P1;PMS_P2;Temp;Humidity;BMP_temperature;BMP_pressure;BME280_temperature;BME280_humidity;BME280_pressure;Samples;Min_cycle;Max_cycle;Signal;HPM_P1;HPM_P2
2021/12/21 00:00:54;;;;;;;4.80;2.97;;;-2.10;99.90;;;;;;5114633;27;20242;-53
2021/12/21 00:03:24;;;;;;;6.20;3.20;;;-2.10;99.90;;;;;;5113419;28;20257;-53
2021/12/21 00:05:53;;;;;;;10.53;5.33;;;-2.10;99.90;;;;;;5122746;27;20201;-53
2021/12/21 00:08:22;;;;;;;8.50;3.40;;;-2.10;99.90;;;;;;5135023;27;20242;-54
2021/12/21 00:11:10;;;;;;;5.37;3.80;;;-2.10;99.90;;;;;;5135059;27;20209;-53
2021/12/21 00:13:53;;;;;;;4.93;3.40;;;-2.10;99.90;;;;;;5135115;27;20343;-54
2021/12/21 00:16:42;;;;;;;8.93;4.70;;;-2.20;99.90;;;;;;5135030;27;20237;-54
2021/12/21 00:19:26;;;;;;;9.27;4.47;;;-2.20;99.90;;;;;;5135060;27;20565;-53
2021/12/21 00:22:01;;;;;;;8.33;4.33;;;-2.10;99.90;;;;;;5134333;27;20245;-53
2021/12/21 00:24:33;;;;;;;9.40;5.33;;;-2.20;99.90;;;;;;5134698;27;20633;-54
2021/12/21 00:27:08;;;;;;;7.47;3.30;;;-2.10;99.90;;;;;;5134460;27;20225;-54
2021/12/21 00:29:36;;;;;;;11.37;3.83;;;-2.20;99.90;;;;;;5147457;27;20735;-53
2021/12/21 00:32:04;;;;;;;5.83;3.63;;;-2.10;99.90;;;;;;5134352;27;20203;-53
2021/12/21 00:34:34;;;;;;;9.17;4.13;;;-2.20;99.90;;;;;;5134246;27;20652;-54
2021/12/21 00:37:02;;;;;;;8.10;4.20;;;-2.10;99.90;;;;;;5134387;27;20293;-54
2021/12/21 00:39:30;;;;;;;14.50;6.37;;;-2.10;99.90;;;;;;5133357;27;20247;-54
2021/12/21 00:41:58;;;;;;;8.83;5.10;;;-2.10;99.90;;;;;;5113780;28;20712;-54
2021/12/21 00:44:26;;;;;;;9.33;5.20;;;-2.20;99.90;;;;;;5131745;27;20667;-55
2021/12/21 00:46:54;;;;;;;10.80;4.73;;;-2.20;99.90;;;;;;5134194;27;20256;-54
2021/12/21 00:49:23;;;;;;;6.40;3.00;;;-2.30;99.90;;;;;;5133667;27;20619;-55
2021/12/21 00:51:53;;;;;;;6.20;3.57;;;-2.20;99.90;;;;;;5134247;27;20286;-54
2021/12/21 00:54:21;;;;;;;5.13;2.90;;;-2.20;99.90;;;;;;5133516;27;20250;-54
2021/12/21 00:56:49;;;;;;;6.33;3.10;;;-2.20;99.90;;;;;;5134099;27;20671;-55
2021/12/21 00:59:17;;;;;;;8.17;4.93;;;-2.20;99.90;;;;;;5132787;27;20240;-53
2021/12/21 01:01:45;;;;;;;8.37;5.83;;;-2.20;99.90;;;;;;5128626;27;20289;-53
2021/12/21 01:04:20;;;;;;;7.93;4.33;;;-2.30;99.90;;;;;;5113203;28;20323;-54
2021/12/21 01:07:00;;;;;;;8.00;3.70;;;-2.20;99.90;;;;;;5129095;27;20233;-54
2021/12/21 01:12:17;;;;;;;4.13;2.57;;;-2.30;99.90;;;;;;5112529;28;20296;-53
2021/12/21 01:15:03;;;;;;;7.63;2.70;;;-2.30;99.90;;;;;;5113426;28;20253;-54
2021/12/21 01:17:36;;;;;;;5.03;2.50;;;-2.30;99.90;;;;;;5112961;28;20296;-53
2021/12/21 01:20:12;;;;;;;5.87;2.60;;;-2.30;99.90;;;;;;5132637;27;20296;-53
2021/12/21 01:23:00;;;;;;;5.30;2.50;;;-2.30;99.90;;;;;;5133770;27;20249;-53
2021/12/21 01:25:39;;;;;;;6.80;2.53;;;-2.30;99.90;;;;;;5130128;27;20290;-54
2021/12/21 01:28:14;;;;;;;5.73;2.30;;;-2.30;99.90;;;;;;5140442;27;20239;-55
2021/12/21 01:30:50;;;;;;;5.47;2.40;;;-2.30;99.90;;;;;;5154292;27;20283;-53
2021/12/21 01:33:34;;;;;;;5.23;2.27;;;-2.30;99.90;;;;;;5154212;27;20258;-53
2021/12/21 01:36:07;;;;;;;8.07;2.57;;;-2.30;99.90;;;;;;5152788;27;20260;-52
2021/12/21 01:38:43;;;;;;;4.10;2.43;;;-2.30;99.90;;;;;;5133410;27;20240;-54
2021/12/21 01:41:25;;;;;;;7.57;2.63;;;-2.40;99.90;;;;;;5132883;27;20260;-54
2021/12/21 01:44:03;;;;;;;5.53;2.87;;;-2.40;99.90;;;;;;5133116;27;20645;-54
2021/12/21 01:49:37;;;;;;;8.20;4.23;;;-2.40;99.90;;;;;;5132922;27;20575;-54
2021/12/21 01:52:06;;;;;;;8.57;3.33;;;-2.40;99.90;;;;;;5133950;27;20246;-53
2021/12/21 01:54:34;;;;;;;5.63;3.30;;;-2.40;99.90;;;;;;5136625;27;20770;-54
2021/12/21 01:57:04;;;;;;;4.87;2.93;;;-2.40;99.90;;;;;;5133040;27;20259;-54
2021/12/21 01:59:32;;;;;;;6.60;3.10;;;-2.50;99.90;;;;;;5132412;27;20243;-54
2021/12/21 02:02:01;;;;;;;4.10;2.57;;;-2.50;99.90;;;;;;5132941;27;20244;-54
2021/12/21 02:04:29;;;;;;;5.20;2.33;;;-2.50;99.90;;;;;;5132522;27;20261;-54
2021/12/21 02:06:57;;;;;;;4.03;2.27;;;-2.50;99.90;;;;;;5133180;27;20236;-54
2021/12/21 02:09:33;;;;;;;6.03;2.70;;;-2.50;99.90;;;;;;5132115;27;20213;-54
2021/12/21 02:12:02;;;;;;;4.33;1.83;;;-2.50;99.90;;;;;;5111838;28;20304;-54
2021/12/21 02:14:30;;;;;;;3.00;2.43;;;-2.50;99.90;;;;;;5107874;27;20265;-54
2021/12/21 02:17:14;;;;;;;3.47;2.40;;;-2.50;99.90;;;;;;5118093;27;20631;-55
2021/12/21 02:19:58;;;;;;;5.27;2.50;;;-2.50;99.90;;;;;;5138103;27;20205;-53
2021/12/21 02:22:30;;;;;;;6.50;2.70;;;-2.50;99.90;;;;;;5142467;27;20703;-53
2021/12/21 02:25:06;;;;;;;3.57;1.90;;;-2.50;99.90;;;;;;5132596;27;20317;-53
2021/12/21 02:27:43;;;;;;;5.80;2.60;;;-2.50;99.90;;;;;;5132486;27;20293;-53
2021/12/21 02:30:14;;;;;;;11.27;2.70;;;-2.50;99.90;;;;;;5132537;27;20632;-54
2021/12/21 02:32:42;;;;;;;10.03;3.07;;;-2.50;99.90;;;;;;5131713;27;20264;-54
2021/12/21 02:35:12;;;;;;;7.77;3.20;;;-2.50;99.90;;;;;;5132434;27;20202;-54
2021/12/21 02:37:40;;;;;;;6.07;2.93;;;-2.50;99.90;;;;;;5132348;27;20237;-53
2021/12/21 02:40:10;;;;;;;6.23;2.23;;;-2.50;99.90;;;;;;5132523;27;20252;-54
2021/12/21 02:42:38;;;;;;;5.97;3.20;;;-2.50;99.90;;;;;;5132378;28;20249;-55
2021/12/21 02:45:07;;;;;;;3.17;1.80;;;-2.50;99.90;;;;;;5132066;28;20261;-54
2021/12/21 02:47:35;;;;;;;7.60;2.13;;;-2.50;99.90;;;;;;5132230;28;20249;-54
2021/12/21 02:50:04;;;;;;;5.50;3.10;;;-2.50;99.90;;;;;;5132179;28;20227;-53
2021/12/21 02:52:34;;;;;;;6.80;2.50;;;-2.60;99.90;;;;;;5132213;28;20236;-54
2021/12/21 02:55:02;;;;;;;5.63;2.33;;;-2.60;99.90;;;;;;5111408;28;20233;-55
2021/12/21 02:57:30;;;;;;;6.77;2.20;;;-2.60;99.90;;;;;;5111529;28;20252;-53
2021/12/21 03:00:00;;;;;;;4.33;2.30;;;-2.60;99.90;;;;;;5118823;28;20853;-54
2021/12/21 03:02:30;;;;;;;4.67;2.33;;;-2.60;99.90;;;;;;5111297;28;20233;-53
2021/12/21 03:04:59;;;;;;;4.27;1.97;;;-2.60;99.90;;;;;;5112131;28;20241;-53
2021/12/21 03:08:00;;;;;;;6.23;2.17;;;-2.70;99.90;;;;;;5111396;28;20238;-53
2021/12/21 03:10:28;;;;;;;4.10;2.20;;;-2.70;99.90;;;;;;5112543;28;20287;-54
2021/12/21 03:15:41;;;;;;;5.23;2.20;;;-2.70;99.90;;;;;;5131949;28;20233;-54
2021/12/21 03:18:09;;;;;;;8.73;1.90;;;-2.70;99.90;;;;;;5127364;27;20234;-53
2021/12/21 03:20:38;;;;;;;3.10;2.20;;;-2.70;99.90;;;;;;5111512;28;20253;-54
2021/12/21 03:23:06;;;;;;;5.97;2.17;;;-2.70;99.90;;;;;;5113391;28;20268;-54
2021/12/21 03:25:35;;;;;;;6.93;2.57;;;-2.70;99.90;;;;;;5115269;28;20270;-53
2021/12/21 03:28:04;;;;;;;2.93;1.90;;;-2.70;99.90;;;;;;5134828;27;20251;-53
2021/12/21 03:30:32;;;;;;;6.30;2.50;;;-2.70;99.90;;;;;;5147602;27;20239;-53
2021/12/21 03:33:00;;;;;;;9.20;2.10;;;-2.80;99.90;;;;;;5136165;27;20221;-53
2021/12/21 03:35:28;;;;;;;4.67;2.07;;;-2.90;99.90;;;;;;5135755;27;20205;-53
2021/12/21 03:37:56;;;;;;;5.20;2.43;;;-2.80;99.90;;;;;;5136041;27;20284;-52
2021/12/21 03:40:24;;;;;;;4.93;2.10;;;-2.80;99.90;;;;;;5135400;27;20309;-53
2021/12/21 03:42:53;;;;;;;5.00;2.20;;;-2.80;99.90;;;;;;5135621;27;20316;-54
2021/12/21 03:45:22;;;;;;;5.37;2.20;;;-2.80;99.90;;;;;;5135196;27;20772;-53
2021/12/21 03:47:50;;;;;;;6.50;2.40;;;-2.80;99.90;;;;;;5135309;27;20206;-54
2021/12/21 03:50:20;;;;;;;4.60;2.40;;;-2.90;99.90;;;;;;5135334;27;20260;-54
2021/12/21 03:52:48;;;;;;;3.37;2.10;;;-2.80;99.90;;;;;;5134990;27;20241;-53
2021/12/21 03:55:16;;;;;;;9.63;3.50;;;-2.80;99.90;;;;;;5155847;27;20232;-53
2021/12/21 03:57:44;;;;;;;5.53;2.83;;;-2.80;99.90;;;;;;5155961;27;20255;-54
2021/12/21 04:00:18;;;;;;;4.13;2.47;;;-2.90;99.90;;;;;;5141293;27;20197;-54
2021/12/21 04:02:46;;;;;;;6.50;2.67;;;-2.80;99.90;;;;;;5135451;27;20228;-53
2021/12/21 04:05:14;;;;;;;4.17;2.73;;;-2.90;99.90;;;;;;5134503;27;20218;-55
2021/12/21 04:07:42;;;;;;;6.23;2.90;;;-2.90;99.90;;;;;;5134890;27;20692;-55
2021/12/21 04:10:10;;;;;;;4.70;3.17;;;-2.90;99.90;;;;;;5134904;27;20254;-54
2021/12/21 04:12:38;;;;;;;6.17;2.80;;;-2.90;99.90;;;;;;5135041;27;20259;-54
2021/12/21 04:15:07;;;;;;;4.67;2.67;;;-2.90;99.90;;;;;;5124181;27;20205;-53
2021/12/21 04:17:36;;;;;;;6.47;2.40;;;-3.00;99.90;;;;;;5114350;28;20232;-53
2021/12/21 04:20:05;;;;;;;3.83;2.77;;;-3.00;99.90;;;;;;5114050;28;20209;-54
2021/12/21 04:22:33;;;;;;;3.97;2.37;;;-3.00;99.90;;;;;;5114390;28;20268;-54
2021/12/21 04:25:01;;;;;;;3.67;2.10;;;-3.00;99.90;;;;;;5114139;28;20708;-53
2021/12/21 04:27:29;;;;;;;4.67;2.20;;;-3.00;99.90;;;;;;5137007;27;20779;-54
2021/12/21 04:29:58;;;;;;;7.10;2.67;;;-3.00;99.90;;;;;;5145531;27;20236;-54
2021/12/21 04:32:26;;;;;;;4.60;2.63;;;-3.00;99.90;;;;;;5134487;27;20208;-54
2021/12/21 04:34:55;;;;;;;7.40;2.90;;;-3.00;99.90;;;;;;5134110;27;20311;-54
2021/12/21 04:37:24;;;;;;;4.73;2.83;;;-3.10;99.90;;;;;;5126460;27;20233;-54
2021/12/21 04:39:59;;;;;;;3.00;2.50;;;-3.10;99.90;;;;;;5134345;27;20288;-53
2021/12/21 04:42:27;;;;;;;6.73;2.77;;;-3.10;99.90;;;;;;5134569;27;20229;-55
2021/12/21 04:44:55;;;;;;;6.33;2.43;;;-3.10;99.90;;;;;;5133414;27;20260;-55
2021/12/21 04:47:23;;;;;;;6.23;2.90;;;-3.10;99.90;;;;;;5134713;27;20236;-54
2021/12/21 04:49:52;;;;;;;9.20;2.93;;;-3.10;99.90;;;;;;5134172;27;20256;-55
2021/12/21 04:52:22;;;;;;;5.97;2.80;;;-3.00;99.90;;;;;;5134128;27;20654;-53
2021/12/21 04:54:54;;;;;;;6.27;2.33;;;-3.00;99.90;;;;;;5150581;27;20267;-54
2021/12/21 04:57:22;;;;;;;4.70;2.50;;;-3.00;99.90;;;;;;5133498;27;20618;-54
2021/12/21 04:59:50;;;;;;;7.33;2.83;;;-3.00;99.90;;;;;;5122665;27;20240;-53
2021/12/21 05:02:18;;;;;;;6.43;2.90;;;-3.00;99.90;;;;;;5113370;28;20233;-54
2021/12/21 05:04:46;;;;;;;6.43;3.50;;;-3.00;99.90;;;;;;5129671;27;20307;-53
2021/12/21 05:07:21;;;;;;;8.07;3.00;;;-3.00;99.90;;;;;;5133464;27;20233;-54
2021/12/21 05:09:56;;;;;;;7.97;3.30;;;-3.00;99.90;;;;;;5133577;27;20243;-54
2021/12/21 05:12:24;;;;;;;7.50;2.97;;;-3.00;99.90;;;;;;5133207;27;20247;-55
2021/12/21 05:14:53;;;;;;;6.53;2.80;;;-3.00;99.90;;;;;;5133514;27;20258;-54
2021/12/21 05:17:21;;;;;;;7.63;3.07;;;-3.10;99.90;;;;;;5133667;27;20613;-54
2021/12/21 05:19:49;;;;;;;5.70;3.00;;;-3.10;99.90;;;;;;5133466;27;20289;-53
2021/12/21 05:22:17;;;;;;;7.53;3.00;;;-3.10;99.90;;;;;;5133587;27;20239;-53
2021/12/21 05:24:45;;;;;;;7.20;3.47;;;-3.10;99.90;;;;;;5133481;27;20225;-53
2021/12/21 05:27:15;;;;;;;6.50;3.17;;;-3.10;99.90;;;;;;5139165;27;20251;-53
2021/12/21 05:29:43;;;;;;;7.30;3.30;;;-3.10;99.90;;;;;;5146676;27;20237;-54
2021/12/21 05:32:11;;;;;;;6.83;3.83;;;-3.10;99.90;;;;;;5133107;27;20250;-54
2021/12/21 05:34:39;;;;;;;8.53;3.60;;;-3.20;99.90;;;;;;5116676;27;20225;-54
2021/12/21 05:37:07;;;;;;;6.97;3.40;;;-3.20;99.90;;;;;;5117139;27;20229;-54
2021/12/21 05:39:44;;;;;;;7.70;3.13;;;-3.20;99.90;;;;;;5111784;27;20625;-54
2021/12/21 05:42:12;;;;;;;8.47;3.43;;;-3.20;99.90;;;;;;5114932;27;20241;-54
2021/12/21 05:44:41;;;;;;;8.17;3.10;;;-3.20;99.90;;;;;;5114468;27;20309;-54
2021/12/21 05:47:09;;;;;;;7.37;3.50;;;-3.20;99.90;;;;;;5113010;27;20316;-55
2021/12/21 05:49:38;;;;;;;6.60;3.57;;;-3.20;99.90;;;;;;5111375;28;20205;-53
2021/12/21 05:52:06;;;;;;;7.87;3.50;;;-3.20;99.90;;;;;;5113152;27;20225;-53
2021/12/21 05:54:34;;;;;;;11.40;4.10;;;-3.20;99.90;;;;;;5131494;27;20300;-53
2021/12/21 05:57:03;;;;;;;9.50;3.80;;;-3.20;99.90;;;;;;5111604;28;20700;-54
2021/12/21 05:59:31;;;;;;;10.00;4.43;;;-3.20;99.90;;;;;;5119748;27;20274;-54
2021/12/21 06:02:01;;;;;;;8.57;3.80;;;-3.20;99.90;;;;;;5132178;27;20200;-52
2021/12/21 06:04:29;;;;;;;7.97;3.53;;;-3.20;99.90;;;;;;5132058;27;20249;-53
2021/12/21 06:06:57;;;;;;;7.87;3.60;;;-3.20;99.90;;;;;;5132506;27;20308;-53
2021/12/21 06:09:27;;;;;;;8.97;4.13;;;-3.20;99.90;;;;;;5132903;27;20233;-54
2021/12/21 06:12:06;;;;;;;11.13;4.00;;;-3.20;99.90;;;;;;5132538;27;20251;-53
2021/12/21 06:14:52;;;;;;;9.63;5.17;;;-3.20;99.90;;;;;;5111940;28;20264;-54
2021/12/21 06:23:12;;;;;;;13.47;5.90;;;-3.20;99.90;;;;;;5131702;27;20284;-54
2021/12/21 06:25:48;;;;;;;12.30;7.27;;;-3.30;99.90;;;;;;5124300;27;20209;-55
2021/12/21 06:28:16;;;;;;;11.40;4.70;;;-3.30;99.90;;;;;;5125141;27;20280;-53
2021/12/21 06:30:45;;;;;;;8.17;4.13;;;-3.30;99.90;;;;;;5124757;27;20284;-54
2021/12/21 06:33:15;;;;;;;6.73;3.53;;;-3.30;99.90;;;;;;5124026;27;20317;-53
2021/12/21 06:35:45;;;;;;;6.30;3.90;;;-3.30;99.90;;;;;;5129668;27;20287;-53
2021/12/21 06:38:14;;;;;;;5.93;3.60;;;-3.30;99.90;;;;;;5132348;27;20295;-53
2021/12/21 06:40:42;;;;;;;9.73;3.73;;;-3.30;99.90;;;;;;5132260;27;20232;-53
2021/12/21 06:43:13;;;;;;;7.57;3.60;;;-3.30;99.90;;;;;;5132174;27;20611;-53
2021/12/21 06:45:51;;;;;;;8.60;4.27;;;-3.20;99.90;;;;;;5131791;28;20208;-54
2021/12/21 06:51:19;;;;;;;8.67;3.70;;;-3.30;99.90;;;;;;5131957;28;20240;-53
2021/12/21 06:53:49;;;;;;;7.57;3.87;;;-3.30;99.90;;;;;;5132067;28;20248;-53
2021/12/21 06:56:18;;;;;;;10.53;3.77;;;-3.30;99.90;;;;;;5126351;27;20232;-55
2021/12/21 06:58:47;;;;;;;8.20;3.50;;;-3.30;99.90;;;;;;5113880;27;20233;-53
2021/12/21 07:01:15;;;;;;;9.00;4.10;;;-3.30;99.90;;;;;;5115143;27;20266;-53
2021/12/21 07:03:45;;;;;;;8.63;3.93;;;-3.20;99.90;;;;;;5125134;27;20257;-55
2021/12/21 07:06:16;;;;;;;18.33;5.20;;;-3.20;99.90;;;;;;5135984;27;20231;-53
2021/12/21 07:08:53;;;;;;;14.67;6.23;;;-3.30;99.90;;;;;;5135654;27;20257;-54
2021/12/21 07:11:27;;;;;;;9.57;5.07;;;-3.20;99.90;;;;;;5122560;27;20233;-54
2021/12/21 07:19:39;;;;;;;9.57;4.77;;;-3.20;99.90;;;;;;5071829;28;20236;-55
2021/12/21 07:22:08;;;;;;;11.20;4.73;;;-3.20;99.90;;;;;;5105726;28;20292;-55
2021/12/21 07:24:36;;;;;;;9.30;4.50;;;-3.20;99.90;;;;;;5115266;28;20248;-55
2021/12/21 07:27:05;;;;;;;9.67;4.40;;;-3.20;99.90;;;;;;5123330;27;20309;-55
2021/12/21 07:29:33;;;;;;;7.60;3.97;;;-3.20;99.90;;;;;;5135666;27;20732;-55
2021/12/21 07:32:02;;;;;;;6.83;3.53;;;-3.30;99.90;;;;;;5135982;27;20206;-54
2021/12/21 07:34:30;;;;;;;7.83;3.50;;;-3.30;99.90;;;;;;5135797;27;20243;-54
2021/12/21 07:37:00;;;;;;;4.73;3.40;;;-3.30;99.90;;;;;;5147333;27;20288;-54
2021/12/21 07:39:28;;;;;;;9.10;3.93;;;-3.30;99.90;;;;;;5135371;27;20240;-54
2021/12/21 07:42:16;;;;;;;7.23;3.77;;;-3.30;99.90;;;;;;5135408;27;20208;-53
2021/12/21 07:44:44;;;;;;;8.67;3.70;;;-3.40;99.90;;;;;;5135520;27;20217;-54
2021/12/21 07:47:12;;;;;;;7.33;3.77;;;-3.40;99.90;;;;;;5135424;27;20231;-54
2021/12/21 07:49:40;;;;;;;5.70;3.00;;;-3.40;99.90;;;;;;5135445;27;20299;-54
2021/12/21 07:52:11;;;;;;;12.53;5.13;;;-3.40;99.90;;;;;;5130123;27;20201;-53
2021/12/21 07:54:39;;;;;;;9.37;4.67;;;-3.30;99.90;;;;;;5143364;27;20305;-54
2021/12/21 07:57:08;;;;;;;7.63;3.83;;;-3.30;99.90;;;;;;5134986;27;20627;-53
2021/12/21 07:59:37;;;;;;;5.73;3.00;;;-3.30;99.90;;;;;;5133789;27;20240;-53
2021/12/21 08:02:11;;;;;;;9.10;3.10;;;-3.30;99.90;;;;;;5126260;27;20208;-53
2021/12/21 08:04:41;;;;;;;5.60;3.27;;;-3.20;99.90;;;;;;5130685;27;20277;-54
2021/12/21 08:07:16;;;;;;;4.97;2.70;;;-3.20;99.90;;;;;;5131703;27;20222;-54
2021/12/21 08:09:48;;;;;;;6.40;2.90;;;-3.10;99.90;;;;;;5129033;27;20205;-53
2021/12/21 08:12:17;;;;;;;4.60;2.10;;;-3.10;99.90;;;;;;5134192;27;20630;-54
2021/12/21 08:14:47;;;;;;;10.13;2.40;;;-3.00;99.90;;;;;;5134114;27;20297;-54
2021/12/21 08:17:16;;;;;;;7.97;2.57;;;-3.00;99.90;;;;;;5133998;27;20204;-53
2021/12/21 08:19:45;;;;;;;6.17;3.50;;;-3.00;99.90;;;;;;5134190;27;20292;-53
2021/12/21 08:22:14;;;;;;;16.60;7.90;;;-3.00;99.90;;;;;;5134111;27;20251;-54
2021/12/21 08:24:44;;;;;;;13.33;6.00;;;-2.90;99.90;;;;;;5124005;27;20277;-54
2021/12/21 08:27:12;;;;;;;8.43;4.20;;;-2.90;99.90;;;;;;5131533;27;20311;-53
2021/12/21 08:29:40;;;;;;;5.77;2.80;;;-2.80;99.90;;;;;;5129763;27;20247;-54
2021/12/21 08:32:09;;;;;;;8.10;3.40;;;-2.80;99.90;;;;;;5134237;27;20247;-54
2021/12/21 08:34:37;;;;;;;8.00;3.63;;;-2.70;99.90;;;;;;5133308;27;20324;-54
2021/12/21 08:37:06;;;;;;;9.40;3.80;;;-2.60;99.90;;;;;;5132691;27;20688;-54
2021/12/21 08:39:39;;;;;;;11.93;4.27;;;-2.60;99.90;;;;;;5132420;27;20690;-54
2021/12/21 08:42:12;;;;;;;9.83;2.83;;;-2.50;99.90;;;;;;5133954;27;20209;-54
2021/12/21 08:44:40;;;;;;;4.00;1.67;;;-2.50;99.90;;;;;;5132598;27;20261;-55
2021/12/21 08:47:08;;;;;;;6.23;1.77;;;-2.50;99.90;;;;;;5133205;27;20676;-54
2021/12/21 08:49:36;;;;;;;8.10;2.20;;;-2.40;99.90;;;;;;5132364;27;20212;-55
2021/12/21 08:52:05;;;;;;;7.10;2.40;;;-2.30;99.90;;;;;;5129140;27;20848;-53
2021/12/21 08:54:40;;;;;;;6.50;2.57;;;-2.30;99.90;;;;;;5133448;27;20245;-54
2021/12/21 08:57:08;;;;;;;6.60;2.60;;;-2.30;99.90;;;;;;5131849;27;21335;-54
2021/12/21 08:59:36;;;;;;;6.37;2.37;;;-2.20;99.90;;;;;;5128214;27;20241;-52
2021/12/21 09:02:05;;;;;;;6.57;2.50;;;-2.20;99.90;;;;;;5130177;27;20234;-54
2021/12/21 09:04:33;;;;;;;4.87;2.50;;;-2.20;99.90;;;;;;5133168;27;20233;-54
2021/12/21 09:07:02;;;;;;;6.93;2.93;;;-2.10;99.90;;;;;;5133946;27;20259;-53
2021/12/21 09:09:31;;;;;;;8.77;4.87;;;-2.10;99.90;;;;;;5132072;27;20207;-54
2021/12/21 09:12:00;;;;;;;8.27;4.10;;;-2.10;99.90;;;;;;5131136;27;20245;-53
2021/12/21 09:14:32;;;;;;;9.27;4.07;;;-2.00;99.90;;;;;;5131206;27;20223;-54
2021/12/21 09:17:00;;;;;;;8.63;4.17;;;-1.90;99.90;;;;;;5134508;27;20209;-54
2021/12/21 09:19:29;;;;;;;10.50;4.47;;;-1.90;99.90;;;;;;5130933;27;20263;-53
2021/12/21 09:22:00;;;;;;;7.93;4.20;;;-1.80;99.90;;;;;;5130884;27;20203;-54
2021/12/21 09:24:29;;;;;;;9.60;4.23;;;-1.80;99.90;;;;;;5131378;27;20233;-54
2021/12/21 09:26:57;;;;;;;9.50;4.33;;;-1.70;99.90;;;;;;5132854;27;20206;-52
2021/12/21 09:29:26;;;;;;;9.40;3.90;;;-1.70;99.90;;;;;;5136950;27;20210;-54
2021/12/21 09:31:55;;;;;;;8.90;3.70;;;-1.70;99.90;;;;;;5132870;27;20690;-53
2021/12/21 09:34:23;;;;;;;7.87;4.23;;;-1.60;99.90;;;;;;5128487;27;20306;-53
2021/12/21 09:36:52;;;;;;;9.50;5.43;;;-1.60;99.90;;;;;;5118813;27;20226;-53
2021/12/21 09:39:20;;;;;;;10.50;5.23;;;-1.50;99.90;;;;;;5132482;27;20731;-55
2021/12/21 09:41:48;;;;;;;10.53;5.70;;;-1.50;99.90;;;;;;5132516;27;20769;-54
2021/12/21 09:44:16;;;;;;;11.67;6.13;;;-1.40;99.90;;;;;;5127602;27;20280;-53
2021/12/21 09:46:46;;;;;;;10.83;5.90;;;-1.40;99.90;;;;;;5116914;27;20247;-54
2021/12/21 09:49:16;;;;;;;10.73;4.87;;;-1.40;99.90;;;;;;5126941;27;20223;-55
2021/12/21 09:51:45;;;;;;;11.87;4.90;;;-1.40;99.90;;;;;;5138187;27;20210;-53
2021/12/21 09:54:18;;;;;;;9.03;4.73;;;-1.30;99.90;;;;;;5149983;27;20222;-54
2021/12/21 09:56:46;;;;;;;9.77;4.82;;;-1.30;99.90;;;;;;5132028;27;20392;-53
2021/12/21 09:59:14;;;;;;;10.63;5.77;;;-1.20;99.90;;;;;;5126843;27;20643;-53
2021/12/21 10:01:46;;;;;;;11.30;5.30;;;-1.20;99.90;;;;;;5131717;27;20215;-54
2021/12/21 10:04:14;;;;;;;12.13;4.80;;;-1.10;99.90;;;;;;5131604;27;20258;-54
2021/12/21 10:06:47;;;;;;;7.00;4.70;;;-1.10;99.90;;;;;;5132923;27;20203;-53
2021/12/21 10:09:16;;;;;;;10.07;6.40;;;-1.10;99.90;;;;;;5130943;27;20715;-55
2021/12/21 10:12:05;;;;;;;11.10;6.97;;;-1.00;99.90;;;;;;5129959;27;20214;-54
2021/12/21 10:14:33;;;;;;;15.50;7.87;;;-0.90;99.90;;;;;;5131643;27;20321;-52
2021/12/21 10:17:05;;;;;;;13.77;6.77;;;-0.90;99.90;;;;;;5131733;27;20241;-53
2021/12/21 10:19:34;;;;;;;14.03;7.07;;;-0.80;99.90;;;;;;5132017;27;20275;-54
2021/12/21 10:22:10;;;;;;;13.10;7.80;;;-0.80;99.90;;;;;;5131277;27;20249;-53
2021/12/21 10:24:46;;;;;;;10.73;6.93;;;-0.80;99.90;;;;;;5131407;27;20310;-54
2021/12/21 10:27:15;;;;;;;7.43;4.57;;;-0.70;99.90;;;;;;5135202;27;20285;-54
2021/12/21 10:29:45;;;;;;;9.60;4.20;;;-0.60;99.90;;;;;;5131833;27;20235;-54
2021/12/21 10:32:20;;;;;;;8.63;4.13;;;-0.60;99.90;;;;;;5130694;27;20234;-54
2021/12/21 10:34:58;;;;;;;6.43;3.60;;;-0.50;99.90;;;;;;5131551;27;20318;-54
2021/12/21 10:37:29;;;;;;;7.97;4.13;;;-0.50;99.90;;;;;;5131542;27;20198;-54
2021/12/21 10:40:22;;;;;;;8.03;4.20;;;-0.50;99.90;;;;;;5131391;27;20238;-53
2021/12/21 10:42:54;;;;;;;6.60;3.80;;;-0.40;99.90;;;;;;5130090;27;20235;-54
2021/12/21 10:45:30;;;;;;;9.00;4.07;;;-0.40;99.90;;;;;;5130645;27;20211;-54
2021/12/21 10:48:01;;;;;;;9.30;4.27;;;-0.30;99.90;;;;;;5130608;27;20293;-52
2021/12/21 10:50:32;;;;;;;8.03;3.90;;;-0.30;99.90;;;;;;5130940;28;20206;-53
2021/12/21 10:53:02;;;;;;;8.57;3.90;;;-0.20;99.90;;;;;;5132940;27;20746;-54
2021/12/21 10:55:32;;;;;;;12.27;4.30;;;-0.20;99.90;;;;;;5130943;28;20823;-53
2021/12/21 10:58:11;;;;;;;8.50;4.17;;;-0.20;99.90;;;;;;5131082;28;20202;-53
2021/12/21 11:00:41;;;;;;;6.87;4.17;;;-0.10;99.90;;;;;;5129025;28;20725;-54
2021/12/21 11:03:11;;;;;;;10.50;4.57;;;-0.10;99.90;;;;;;5131485;28;20230;-53
2021/12/21 11:05:42;;;;;;;8.30;4.77;;;-0.10;99.90;;;;;;5131119;28;20268;-55
2021/12/21 11:08:16;;;;;;;10.60;5.47;;;0.00;99.90;;;;;;5131632;28;20243;-54
2021/12/21 11:10:51;;;;;;;10.97;4.90;;;0.00;99.90;;;;;;5130688;28;20243;-54
2021/12/21 11:13:20;;;;;;;11.97;5.30;;;0.10;99.90;;;;;;5131473;28;20233;-53
2021/12/21 11:15:53;;;;;;;9.27;5.50;;;0.10;99.90;;;;;;5131065;28;20208;-53
2021/12/21 11:18:25;;;;;;;10.50;4.80;;;0.10;99.90;;;;;;5127992;28;20206;-54
2021/12/21 11:20:56;;;;;;;11.63;5.33;;;0.20;99.90;;;;;;5131027;28;20238;-53
2021/12/21 11:23:26;;;;;;;12.47;5.33;;;0.20;99.90;;;;;;5131386;28;20711;-53
2021/12/21 11:25:56;;;;;;;13.47;6.37;;;0.30;99.90;;;;;;5127417;28;20648;-53
2021/12/21 11:28:35;;;;;;;15.23;6.67;;;0.30;99.90;;;;;;5131013;28;20372;-53
2021/12/21 11:31:06;;;;;;;10.37;6.70;;;0.30;99.90;;;;;;5130835;28;20234;-55
2021/12/21 11:33:43;;;;;;;11.93;6.77;;;0.30;99.90;;;;;;5125703;28;20259;-54
2021/12/21 11:39:02;;;;;;;11.70;6.00;;;0.40;99.90;;;;;;5130038;28;20562;-54
2021/12/21 11:41:32;;;;;;;12.73;6.33;;;0.40;99.90;;;;;;5130735;28;20207;-55
2021/12/21 11:44:09;;;;;;;10.97;5.43;;;0.40;99.90;;;;;;5130367;27;20249;-53
2021/12/21 11:46:50;;;;;;;11.23;5.63;;;0.50;99.90;;;;;;5128164;27;20235;-53
2021/12/21 11:49:26;;;;;;;9.77;5.30;;;0.50;99.90;;;;;;5133850;27;20665;-55
2021/12/21 11:52:06;;;;;;;11.67;6.03;;;0.50;99.90;;;;;;5133871;27;20205;-53
2021/12/21 11:54:47;;;;;;;9.30;5.67;;;0.60;99.90;;;;;;5131350;27;20793;-55
2021/12/21 11:57:18;;;;;;;12.60;6.53;;;0.60;99.90;;;;;;5133889;27;20733;-53
2021/12/21 11:59:46;;;;;;;10.37;6.40;;;0.60;99.90;;;;;;5133416;27;20283;-54
2021/12/21 12:02:15;;;;;;;12.07;6.23;;;0.70;99.90;;;;;;5131583;27;20232;-53
2021/12/21 12:04:55;;;;;;;11.97;6.77;;;0.70;99.90;;;;;;5134072;27;20249;-53
2021/12/21 12:07:23;;;;;;;10.27;6.20;;;0.70;99.90;;;;;;5133830;27;20244;-53
2021/12/21 12:10:06;;;;;;;12.90;6.77;;;0.80;99.90;;;;;;5128709;27;20253;-55
2021/12/21 12:12:34;;;;;;;12.60;8.03;;;0.80;99.90;;;;;;5117514;27;20277;-53
2021/12/21 12:15:06;;;;;;;16.70;7.47;;;0.80;99.90;;;;;;5122441;27;20713;-53
2021/12/21 12:17:46;;;;;;;12.37;7.67;;;0.90;99.90;;;;;;5117764;27;20247;-54
2021/12/21 12:20:16;;;;;;;16.73;8.77;;;0.90;99.90;;;;;;5112779;28;20208;-54
2021/12/21 12:22:47;;;;;;;11.27;8.27;;;1.00;99.90;;;;;;5113099;28;20448;-54
2021/12/21 12:25:20;;;;;;;12.77;8.37;;;1.00;99.90;;;;;;5113237;28;20205;-54
2021/12/21 12:27:50;;;;;;;17.60;9.00;;;1.00;99.90;;;;;;5137612;27;20232;-52
2021/12/21 12:30:21;;;;;;;15.17;8.93;;;1.10;99.90;;;;;;5138835;27;20374;-54
2021/12/21 12:32:55;;;;;;;15.67;8.33;;;1.10;99.90;;;;;;5123912;27;20205;-53
2021/12/21 12:35:26;;;;;;;17.93;11.10;;;1.10;99.90;;;;;;5117960;27;20199;-53
2021/12/21 12:37:58;;;;;;;15.73;8.83;;;1.20;99.90;;;;;;5116771;27;20225;-54
2021/12/21 12:40:28;;;;;;;16.17;9.63;;;1.20;99.90;;;;;;5130886;27;20645;-53
2021/12/21 12:43:00;;;;;;;13.60;9.40;;;1.20;99.90;;;;;;5132143;27;20199;-53
2021/12/21 12:45:35;;;;;;;16.23;8.40;;;1.20;99.90;;;;;;5124176;27;20240;-53
2021/12/21 12:48:05;;;;;;;13.17;7.87;;;1.20;99.90;;;;;;5133537;27;20228;-54
2021/12/21 12:50:40;;;;;;;13.33;7.63;;;1.20;99.90;;;;;;5137375;27;20209;-53
2021/12/21 12:53:09;;;;;;;16.13;8.07;;;1.20;99.90;;;;;;5134523;27;20252;-54
2021/12/21 12:55:40;;;;;;;16.90;7.67;;;1.20;99.90;;;;;;5117316;27;20243;-54
2021/12/21 12:58:30;;;;;;;14.10;7.30;;;1.20;99.90;;;;;;5130374;27;20208;-53
2021/12/21 13:01:01;;;;;;;13.87;7.83;;;1.20;99.90;;;;;;5118150;27;20223;-53
2021/12/21 13:03:35;;;;;;;15.83;8.50;;;1.20;99.90;;;;;;5112081;28;20235;-54
2021/12/21 13:06:10;;;;;;;12.63;8.00;;;1.20;99.90;;;;;;5130998;27;20204;-54
2021/12/21 13:08:40;;;;;;;12.50;7.30;;;1.30;99.90;;;;;;5154113;27;20202;-55
2021/12/21 13:11:08;;;;;;;12.73;8.10;;;1.20;99.90;;;;;;5138145;27;20282;-54
2021/12/21 13:13:38;;;;;;;14.83;7.70;;;1.20;99.90;;;;;;5129939;27;20259;-54
2021/12/21 13:16:08;;;;;;;11.80;8.03;;;1.20;99.90;;;;;;5131513;27;20233;-54
2021/12/21 13:18:43;;;;;;;20.07;9.53;;;1.20;99.90;;;;;;5131962;27;20317;-55
2021/12/21 13:21:21;;;;;;;16.97;8.17;;;1.20;99.90;;;;;;5131015;27;20228;-55
2021/12/21 13:23:51;;;;;;;14.37;8.80;;;1.20;99.90;;;;;;5130548;27;20263;-55
2021/12/21 13:26:22;;;;;;;16.67;9.47;;;1.20;99.90;;;;;;5130204;27;20653;-54
2021/12/21 13:28:52;;;;;;;12.53;8.50;;;1.20;99.90;;;;;;5132866;27;20249;-55
2021/12/21 13:31:22;;;;;;;13.87;8.60;;;1.20;99.90;;;;;;5130307;27;20316;-55